Data for 05/29/2005

Time Sea-Level Adjusted Pressure Absolute Pressure Temperature Relative Humidity Dew Point   
(mb) (inHg) (mb) (inHg) (C) (F) (%) (C) (F)
00:05 1017 30.03 846 24.98 12.6 54.7 39 -1 30.2
00:10 1017 30.03 847 25.01 13 55.5 41 0.1 32.2
00:15 1018 30.06 847 25.01 12.8 55 41 -0.2 31.6
00:20 1018 30.06 847 25.01 12.8 55 41 -0.2 31.6
00:25 1018 30.06 847 25.01 12.7 54.8 40 -0.4 31.3
00:30 1017 30.03 847 25.01 12.6 54.7 41 -0.3 31.5
00:35 1017 30.03 847 25.01 12.3 54.1 42 -0 31.9
00:40 1017 30.03 847 25.01 12 53.6 42 -0.4 31.3
00:45 1017 30.03 847 25.01 12.1 53.9 41 -0.7 30.8
00:50 1017 30.03 847 25.01 12.2 53.9 41 -0.5 31.1
00:55 1017 30.03 846 24.98 12 53.6 42 -0.5 31.1
01:00 1017 30.03 847 25.01 11.9 53.4 42 -0.6 30.9
01:05 1017 30.03 846 24.98 11.8 53.2 43 -0.5 31.1
01:10 1017 30.03 846 24.98 11.6 52.8 42 -0.9 30.4
01:15 1017 30.03 847 25.01 11.5 52.7 42 -0.9 30.5
01:20 1017 30.03 847 25.01 11.6 52.8 41 -1.2 29.8
01:25 1017 30.03 847 25.01 11.6 52.9 41 -1.3 29.7
01:30 1017 30.03 847 25.01 11.6 52.9 40 -1.4 29.6
01:35 1017 30.03 846 24.98 11.7 53 40 -1.5 29.3
01:40 1017 30.03 846 24.98 11.6 52.8 40 -1.5 29.4
01:45 1017 30.03 846 24.98 11.5 52.7 41 -1.4 29.5
01:50 1017 30.03 846 24.98 11.5 52.6 41 -1.3 29.6
01:55 1017 30.03 846 24.98 11.5 52.7 41 -1.4 29.6
02:00 1017 30.03 846 24.98 11.4 52.6 41 -1.3 29.6
02:05 1017 30.03 846 24.98 11.4 52.5 41 -1.3 29.7
02:10 1017 30.03 847 25.01 11.3 52.3 42 -1.2 29.8
02:15 1017 30.03 847 25.01 11.2 52.1 42 -1.3 29.7
02:20 1017 30.03 846 24.98 11 51.8 43 -1.1 30
02:25 1017 30.03 846 24.98 10.7 51.2 44 -0.9 30.4
02:30 1017 30.03 847 25.01 10.4 50.8 45 -1 30.3
02:35 1017 30.03 847 25.01 10.4 50.6 45 -0.9 30.3
02:40 1017 30.03 847 25.01 10.4 50.7 45 -1 30.2
02:45 1017 30.03 846 24.98 10.4 50.8 44 -1.2 29.8
02:50 1017 30.03 846 24.98 10.5 50.8 44 -1.2 29.9
02:55 1017 30.03 847 25.01 10.2 50.4 45 -1.1 30
03:00 1017 30.03 846 24.98 10.1 50.2 46 -1 30.2
03:05 1017 30.03 846 24.98 9.8 49.7 47 -0.9 30.5
03:10 1017 30.03 847 25.01 9.7 49.4 48 -0.8 30.5
03:15 1017 30.03 847 25.01 9.6 49.2 48 -1 30.2
03:20 1017 30.03 847 25.01 9.6 49.3 47 -1.1 30
03:25 1017 30.03 847 25.01 9.7 49.4 46 -1.2 29.8
03:30 1017 30.03 847 25.01 9.7 49.4 46 -1.2 29.8
03:35 1017 30.03 847 25.01 9.5 49.2 48 -1 30.2
03:40 1017 30.03 847 25.01 9.4 48.8 48 -1 30.2
03:45 1017 30.03 847 25.01 9.3 48.7 50 -0.6 30.9
03:50 1017 30.03 847 25.01 9.2 48.6 50 -0.6 30.9
03:55 1017 30.03 847 25.01 9.2 48.5 50 -0.6 30.9
04:00 1018 30.06 847 25.01 9.1 48.3 51 -0.5 31
04:05 1017 30.03 847 25.01 9 48.1 52 -0.4 31.3
04:10 1018 30.06 847 25.01 8.8 47.9 53 -0.2 31.7
04:15 1018 30.06 847 25.01 8.7 47.6 54 -0.2 31.6
04:20 1018 30.06 847 25.01 8.5 47.2 55 -0.1 31.9
04:25 1018 30.06 847 25.01 8.3 47 55 -0.1 31.8
04:30 1018 30.06 847 25.01 8.1 46.6 57 0.1 32.3
04:35 1018 30.06 847 25.01 7.9 46.2 58 0.1 32.1
04:40 1017 30.03 847 25.01 7.9 46.3 57 -0 32
04:45 1018 30.06 847 25.01 7.9 46.3 58 0.1 32.2
04:50 1018 30.06 847 25.01 7.9 46.2 58 0.2 32.4
04:55 1018 30.06 847 25.01 7.8 46 58 0.1 32.2
05:00 1018 30.06 847 25.01 7.6 45.8 60 0.4 32.7
05:05 1018 30.06 847 25.01 7.6 45.6 60 0.3 32.6
05:10 1018 30.06 847 25.01 7.5 45.5 61 0.5 32.8
05:15 1017 30.03 847 25.01 7.4 45.2 62 0.5 32.9
05:20 1017 30.03 847 25.01 7.2 44.9 62 0.5 32.9
05:25 1017 30.03 847 25.01 7.1 44.9 62 0.5 32.8
05:30 1018 30.06 847 25.01 7.1 44.9 63 0.6 33.1
05:35 1018 30.06 847 25.01 7 44.6 64 0.6 33.1
05:40 1018 30.06 847 25.01 6.9 44.5 64 0.7 33.2
05:45 1018 30.06 847 25.01 7 44.6 64 0.7 33.3
05:50 1018 30.06 847 25.01 6.9 44.5 65 0.9 33.6
05:55 1018 30.06 847 25.01 6.8 44.3 66 1 33.9
06:00 1018 30.06 847 25.01 6.6 43.9 67 1 33.9
06:05 1018 30.06 847 25.01 6.7 44 67 1.1 33.9
06:10 1018 30.06 847 25.01 6.7 44 68 1.2 34.1
06:15 1018 30.06 847 25.01 6.6 44 68 1.2 34.2
06:20 1018 30.06 847 25.01 6.7 44 69 1.3 34.4
06:25 1018 30.06 847 25.01 6.6 43.8 69 1.4 34.5
06:30 1018 30.06 847 25.01 6.7 44.1 69 1.5 34.7
06:35 1018 30.06 847 25.01 6.7 44.1 69 1.5 34.7
06:40 1018 30.06 847 25.01 6.8 44.2 70 1.7 35.1
06:45 1018 30.06 847 25.01 6.8 44.3 70 1.8 35.3
06:50 1018 30.06 847 25.01 6.8 44.3 71 1.9 35.4
06:55 1018 30.06 847 25.01 6.9 44.4 70 1.9 35.4
07:00 1018 30.06 847 25.01 6.9 44.4 70 1.9 35.4
07:05 1018 30.06 847 25.01 7.1 44.7 70 1.9 35.5
07:10 1018 30.06 847 25.01 7 44.7 70 1.9 35.5
07:15 1018 30.06 847 25.01 7 44.6 70 2 35.6
07:20 1018 30.06 847 25.01 7.1 44.8 69 1.9 35.4
07:25 1018 30.06 847 25.01 7.4 45.3 67 1.7 35.1
07:30 1018 30.06 847 25.01 7.6 45.6 67 2 35.5
07:35 1018 30.06 847 25.01 7.6 45.6 67 1.9 35.5
07:40 1018 30.06 847 25.01 7.9 46.3 67 2.1 35.8
07:45 1018 30.06 847 25.01 8 46.3 67 2.2 35.9
07:50 1018 30.06 847 25.01 8 46.4 66 2.1 35.8
07:55 1018 30.06 847 25.01 8.2 46.7 66 2.3 36.1
08:00 1018 30.06 847 25.01 8.4 47.1 65 2.2 35.9
08:05 1018 30.06 847 25.01 8.5 47.3 65 2.3 36.1
08:10 1018 30.06 847 25.01 8.5 47.4 66 2.5 36.5
08:15 1018 30.06 847 25.01 8.6 47.4 65 2.3 36.1
08:20 1018 30.06 847 25.01 8.6 47.4 65 2.5 36.5
08:25 1018 30.06 847 25.01 8.6 47.4 65 2.3 36.1
08:30 1018 30.06 847 25.01 8.9 48 63 2.2 36
08:35 1018 30.06 847 25.01 9 48.2 63 2.4 36.3
08:40 1018 30.06 847 25.01 9.1 48.4 62 2.3 36.1
08:45 1018 30.06 847 25.01 9.1 48.3 62 2.3 36.1
08:50 1018 30.06 847 25.01 9.3 48.8 62 2.4 36.3
08:55 1018 30.06 847 25.01 9.3 48.7 62 2.5 36.4
09:00 1018 30.06 848 25.04 9.3 48.8 61 2.2 35.9
09:05 1018 30.06 847 25.01 9.6 49.4 60 2.3 36.1
09:10 1018 30.06 848 25.04 9.9 49.9 59 2.4 36.3
09:15 1018 30.06 848 25.04 10 50 59 2.3 36.1
09:20 1018 30.06 848 25.04 9.9 49.8 60 2.4 36.4
09:25 1018 30.06 848 25.04 10.1 50.1 58 2.2 36
09:30 1018 30.06 848 25.04 10.3 50.5 57 2.2 35.9
09:35 1018 30.06 848 25.04 10.3 50.6 58 2.5 36.4
09:40 1018 30.06 848 25.04 10.7 51.2 56 2.2 35.9
09:45 1018 30.06 848 25.04 10.7 51.2 57 2.6 36.6
09:50 1018 30.06 848 25.04 10.8 51.5 56 2.5 36.5
09:55 1018 30.06 848 25.04 10.8 51.4 57 2.5 36.6
10:00 1018 30.06 848 25.04 11.1 52 56 2.7 36.9
10:05 1018 30.06 847 25.01 11.2 52.1 56 2.8 37.1
10:10 1018 30.06 847 25.01 11.2 52.1 56 2.7 36.8
10:15 1018 30.06 847 25.01 11.2 52.1 56 2.7 36.9
10:20 1018 30.06 848 25.04 11.6 53 55 2.9 37.3
10:25 1018 30.06 847 25.01 11.4 52.6 55 2.8 37
10:30 1018 30.06 847 25.01 11.6 52.8 53 2.5 36.5
10:35 1018 30.06 847 25.01 11.7 53.1 54 2.6 36.8
10:40 1018 30.06 847 25.01 11.9 53.4 53 2.7 36.9
10:45 1018 30.06 847 25.01 12.2 53.9 52 2.7 36.8
10:50 1018 30.06 847 25.01 12.5 54.5 51 2.6 36.8
10:55 1018 30.06 848 25.04 12.5 54.6 51 2.8 37
11:00 1018 30.06 848 25.04 12.6 54.7 50 2.5 36.5
11:05 1018 30.06 847 25.01 12.3 54.2 52 2.7 36.9
11:10 1018 30.06 847 25.01 12.7 54.8 50 2.5 36.5
11:15 1018 30.06 847 25.01 12.9 55.1 50 2.6 36.8
11:20 1018 30.06 847 25.01 13.1 55.5 49 2.6 36.6
11:25 1018 30.06 847 25.01 13.2 55.7 49 2.6 36.7
11:30 1018 30.06 847 25.01 13.5 56.3 48 2.7 36.8
11:35 1018 30.06 847 25.01 13.5 56.3 44 1.7 35
11:40 1018 30.06 847 25.01 13.6 56.4 47 2.6 36.7
11:45 1018 30.06 847 25.01 13.8 56.8 46 2.3 36.2
11:50 1018 30.06 847 25.01 13.8 56.8 46 2.6 36.6
11:55 1018 30.06 847 25.01 14 57.2 46 2.7 36.9
12:00 1018 30.06 847 25.01 13.9 57.1 46 2.6 36.7
12:05 1018 30.06 847 25.01 14.1 57.3 44 2 35.6
12:10 1018 30.06 847 25.01 14.4 57.9 42 1.8 35.3
12:15 1018 30.06 847 25.01 14.3 57.7 43 2 35.5
12:20 1018 30.06 847 25.01 14.4 57.9 43 2.1 35.7
12:25 1018 30.06 847 25.01 14.3 57.8 43 2 35.6
12:30 1018 30.06 847 25.01 14.1 57.3 41 1.2 34.2
12:35 1018 30.06 847 25.01 14.2 57.5 40 0.8 33.5
12:40 1018 30.06 847 25.01 14.3 57.7 41 1.2 34.2
12:45 1018 30.06 847 25.01 14.5 58 40 1.3 34.3
12:50 1018 30.06 847 25.01 14.1 57.3 41 1.1 34
12:55 1018 30.06 847 25.01 13.9 57 42 1.2 34.1
13:00 1018 30.06 847 25.01 14.5 58.1 40 1.3 34.4
13:05 1018 30.06 847 25.01 15.1 59.1 35 -0.1 31.7
13:10 1018 30.06 847 25.01 14.9 58.9 39 1.1 34
13:15 1018 30.06 847 25.01 14.2 57.5 40 0.9 33.6
13:20 1018 30.06 847 25.01 14.1 57.3 40 0.9 33.6
13:25 1018 30.06 847 25.01 14.1 57.4 37 -0.2 31.6
13:30 1018 30.06 847 25.01 14.6 58.2 37 0.3 32.6
13:35 1018 30.06 847 25.01 14.7 58.5 42 1.9 35.4
13:40 1018 30.06 847 25.01 14.5 58.1 40 1.3 34.3
13:45 1018 30.06 847 25.01 14.6 58.2 38 0.4 32.7
13:50 1018 30.06 847 25.01 14.6 58.4 38 0.6 33.1
13:55 1018 30.06 847 25.01 14.8 58.6 38 0.7 33.3
14:00 1017 30.03 847 25.01 14.8 58.6 38 0.7 33.3
14:05 1018 30.06 847 25.01 15 58.9 38 1 33.8
14:10 1018 30.06 847 25.01 14.9 58.8 39 1.3 34.4
14:15 1017 30.03 847 25.01 15.1 59.2 35 -0.2 31.6
14:20 1017 30.03 847 25.01 15.2 59.4 34 -0.4 31.3
14:25 1017 30.03 847 25.01 15.5 59.8 36 0.5 32.9
14:30 1018 30.06 847 25.01 15.4 59.7 35 -0.1 31.8
14:35 1018 30.06 847 25.01 15.4 59.7 34 -0.5 31.1
14:40 1017 30.03 847 25.01 15.5 60 35 0.2 32.4
14:45 1017 30.03 847 25.01 15.5 59.9 34 -0.2 31.7
14:50 1018 30.06 847 25.01 15.4 59.7 33 -0.8 30.6
14:55 1018 30.06 847 25.01 15.9 60.7 33 -0.3 31.5
15:00 1018 30.06 847 25.01 15.5 59.9 33 -0.7 30.7
15:05 1018 30.06 847 25.01 15.5 59.9 33 -0.5 31.2
15:10 1017 30.03 847 25.01 15.7 60.2 34 -0.2 31.7
15:15 1017 30.03 847 25.01 15.1 59.1 34 -0.4 31.3
15:20 1018 30.06 847 25.01 15 59 34 -0.6 30.9
15:25 1017 30.03 847 25.01 15.1 59.1 36 0 32
15:30 1017 30.03 847 25.01 15.1 59.3 36 0.3 32.5
15:35 1018 30.06 847 25.01 14.9 58.7 37 0.5 32.9
15:40 1017 30.03 847 25.01 14.6 58.2 38 0.5 32.9
15:45 1018 30.06 847 25.01 14.8 58.7 37 0.2 32.4
15:50 1017 30.03 847 25.01 14.3 57.8 43 2 35.5
15:55 1017 30.03 847 25.01 14 57.2 47 2.8 37.1
16:00 1017 30.03 847 25.01 13.4 56.1 48 2.7 36.9
16:05 1017 30.03 847 25.01 13.3 55.9 48 2.7 36.8
16:10 1018 30.06 847 25.01 13.3 55.9 50 3.2 37.7
16:15 1018 30.06 847 25.01 13.1 55.5 48 2.5 36.5
16:20 1017 30.03 847 25.01 13.1 55.6 48 2.5 36.4
16:25 1017 30.03 847 25.01 13.3 55.9 47 2.4 36.2
16:30 1018 30.06 847 25.01 13.3 55.9 47 2.2 35.9
16:35 1017 30.03 846 24.98 13 55.5 47 1.9 35.5
16:40 1017 30.03 847 25.01 12.9 55.2 48 2.1 35.7
16:45 1017 30.03 847 25.01 13 55.3 48 2.1 35.9
16:50 1017 30.03 847 25.01 13.2 55.8 45 1.6 34.9
16:55 1018 30.06 847 25.01 13.6 56.5 45 2 35.6
17:00 1018 30.06 847 25.01 13.9 56.9 44 1.8 35.3
17:05 1018 30.06 847 25.01 13.4 56.1 44 1.4 34.6
17:10 1018 30.06 847 25.01 13 55.4 45 1.5 34.7
17:15 1018 30.06 847 25.01 13.3 55.9 43 0.9 33.6
17:20 1017 30.03 847 25.01 13.5 56.3 42 0.7 33.3
17:25 1018 30.06 847 25.01 13.3 55.9 43 0.9 33.6
17:30 1018 30.06 847 25.01 13.6 56.4 43 1.2 34.2
17:35 1018 30.06 847 25.01 13.7 56.6 46 2.3 36.2
17:40 1018 30.06 847 25.01 12.8 55.1 48 2.3 36.1
17:45 1018 30.06 847 25.01 12.4 54.3 49 2 35.6
17:50 1018 30.06 847 25.01 12.4 54.3 50 2.4 36.4
17:55 1018 30.06 847 25.01 12.5 54.4 50 2.4 36.4
18:00 1018 30.06 848 25.04 12.2 54 50 2.2 36
18:05 1018 30.06 847 25.01 12 53.6 50 1.9 35.5
18:10 1018 30.06 847 25.01 11.8 53.3 51 2 35.6
18:15 1018 30.06 847 25.01 11.9 53.4 50 1.9 35.4
18:20 1018 30.06 847 25.01 11.9 53.5 51 2.3 36.1
18:25 1018 30.06 847 25.01 11.7 53 53 2.5 36.5
18:30 1018 30.06 847 25.01 11.5 52.7 54 2.5 36.5
18:35 1018 30.06 847 25.01 11.4 52.4 55 2.6 36.6
18:40 1018 30.06 847 25.01 11.4 52.5 54 2.4 36.2
18:45 1018 30.06 847 25.01 11.1 52 55 2.4 36.3
18:50 1018 30.06 847 25.01 10.8 51.5 57 2.6 36.7
18:55 1018 30.06 847 25.01 10.6 51.1 58 2.6 36.7
19:00 1018 30.06 847 25.01 10.5 50.9 58 2.7 36.8
19:05 1018 30.06 848 25.04 10.4 50.8 58 2.6 36.8
19:10 1018 30.06 848 25.04 10.4 50.6 59 2.7 36.8
19:15 1018 30.06 848 25.04 10.1 50.1 59 2.6 36.6
19:20 1018 30.06 848 25.04 9.9 49.8 61 2.8 37
19:25 1018 30.06 848 25.04 9.8 49.7 62 2.8 37.1
19:30 1018 30.06 848 25.04 9.8 49.6 62 3 37.3
19:35 1018 30.06 847 25.01 9.7 49.5 63 3.1 37.5
19:40 1018 30.06 848 25.04 9.7 49.4 62 2.9 37.2
19:45 1018 30.06 848 25.04 9.6 49.3 63 2.9 37.2
19:50 1018 30.06 848 25.04 9.6 49.2 63 2.9 37.2
19:55 1018 30.06 848 25.04 9.4 48.8 64 3 37.3
20:00 1018 30.06 848 25.04 9.1 48.4 65 2.9 37.2
20:05 1018 30.06 848 25.04 9 48.2 64 2.6 36.6
20:10 1019 30.09 848 25.04 9.1 48.3 63 2.3 36.2
20:15 1018 30.06 848 25.04 9.1 48.4 63 2.4 36.4
20:20 1018 30.06 848 25.04 9.1 48.3 62 2.2 36
20:25 1018 30.06 848 25.04 9.1 48.4 62 2.3 36.1
20:30 1018 30.06 848 25.04 9.1 48.3 62 2.1 35.9
20:35 1018 30.06 848 25.04 9.1 48.3 62 2.3 36.1
20:40 1018 30.06 848 25.04 9 48.2 63 2.3 36.1
20:45 1018 30.06 847 25.01 9 48.1 63 2.3 36.1
20:50 1018 30.06 848 25.04 8.9 48 63 2.2 36
20:55 1018 30.06 848 25.04 8.8 47.9 63 2.2 36
21:00 1018 30.06 848 25.04 8.7 47.6 64 2.2 36
21:05 1018 30.06 847 25.01 8.6 47.5 64 2.3 36.1
21:10 1018 30.06 848 25.04 8.6 47.4 64 2.2 35.9
21:15 1018 30.06 848 25.04 8.5 47.3 65 2.4 36.3
21:20 1018 30.06 847 25.01 8.4 47 66 2.3 36.2
21:25 1018 30.06 848 25.04 8.3 46.9 67 2.5 36.5
21:30 1018 30.06 848 25.04 8.2 46.7 67 2.5 36.5
21:35 1018 30.06 848 25.04 8.2 46.7 67 2.5 36.5
21:40 1019 30.09 848 25.04 8.1 46.6 67 2.3 36.2
21:45 1018 30.06 848 25.04 8.1 46.6 67 2.3 36.2
21:50 1018 30.06 848 25.04 8.1 46.5 67 2.3 36.2
21:55 1019 30.09 848 25.04 8.1 46.6 67 2.5 36.5
22:00 1019 30.09 848 25.04 8.2 46.7 68 2.6 36.6
22:05 1019 30.09 848 25.04 8.2 46.7 67 2.5 36.5
22:10 1019 30.09 848 25.04 8.2 46.7 67 2.4 36.4
22:15 1018 30.06 848 25.04 8.2 46.8 66 2.2 36
22:20 1018 30.06 848 25.04 8.3 47 65 2.3 36.1
22:25 1018 30.06 848 25.04 8.4 47 65 2.3 36.1
22:30 1018 30.06 848 25.04 8.4 47.1 66 2.4 36.2
22:35 1018 30.06 847 25.01 8.4 47.1 66 2.4 36.3
22:40 1018 30.06 848 25.04 8.4 47.1 66 2.3 36.2
22:45 1018 30.06 847 25.01 8.4 47.1 65 2.2 35.9
22:50 1018 30.06 847 25.01 8.4 47 65 2.2 35.9
22:55 1018 30.06 847 25.01 8.4 47 64 2 35.7
23:00 1018 30.06 847 25.01 8.3 47 64 2 35.7
23:05 1018 30.06 847 25.01 8.3 46.9 65 2.1 35.7
23:10 1018 30.06 847 25.01 8.2 46.7 65 2.1 35.8
23:15 1018 30.06 848 25.04 8.1 46.6 66 2.1 35.8
23:20 1018 30.06 847 25.01 8 46.5 66 2.1 35.7
23:25 1018 30.06 848 25.04 8 46.4 66 2.1 35.8
23:30 1018 30.06 848 25.04 7.9 46.3 66 2.1 35.7
23:35 1018 30.06 848 25.04 7.9 46.2 66 2 35.6
23:40 1018 30.06 848 25.04 7.9 46.2 67 2.1 35.8
23:45 1018 30.06 848 25.04 7.9 46.2 67 2.1 35.8
23:50 1018 30.06 848 25.04 7.8 46.1 67 2 35.6
23:55 1018 30.06 848 25.04 7.8 46.1 66 2 35.6
24:00 1018 30.06 848 25.04 7.8 46.1 67 2 35.6